createdAt,value
2019-02-19T00:00:05.261Z,67.70
2019-02-19T00:06:27.469Z,67.10
2019-02-19T00:09:28.594Z,66.80
2019-02-19T00:12:29.873Z,67.00
2019-02-19T00:15:30.760Z,67.50
2019-02-19T00:18:32.237Z,68.30
2019-02-19T00:24:36.160Z,68.90
2019-02-19T00:30:45.963Z,69.20
2019-02-19T00:33:47.479Z,69.30
2019-02-19T00:36:48.875Z,69.60
2019-02-19T00:39:49.870Z,69.90
2019-02-19T00:42:50.895Z,70.50
2019-02-19T00:45:52.270Z,70.20
2019-02-19T00:48:54.030Z,70.20
2019-02-19T00:51:55.367Z,69.60
2019-02-19T00:54:56.551Z,69.80
2019-02-19T00:57:46.190Z,70.80
2019-02-19T01:00:55.001Z,71.40
2019-02-19T01:03:56.528Z,71.80
2019-02-19T01:06:46.160Z,71.70
2019-02-19T01:13:09.459Z,72.60
2019-02-19T01:16:10.785Z,72.30
2019-02-19T01:19:12.391Z,72.80
2019-02-19T01:22:01.921Z,72.90
2019-02-19T01:24:51.636Z,72.80
2019-02-19T01:27:53.083Z,73.20
2019-02-19T01:30:59.059Z,72.80
2019-02-19T01:34:00.947Z,72.40
2019-02-19T01:37:02.890Z,72.30
2019-02-19T01:40:03.931Z,72.70
2019-02-19T01:43:05.491Z,73.30
2019-02-19T01:46:07.136Z,73.30
2019-02-19T01:49:08.470Z,73.30
2019-02-19T01:52:09.844Z,73.40
2019-02-19T01:55:11.084Z,73.40
2019-02-19T01:58:00.959Z,73.90
2019-02-19T02:04:24.460Z,74.60
2019-02-19T02:07:25.719Z,74.60
2019-02-19T02:10:27.251Z,74.70
2019-02-19T02:13:28.286Z,75.10
2019-02-19T02:16:29.284Z,75.20
2019-02-19T02:19:30.633Z,75.20
2019-02-19T02:22:31.746Z,74.70
2019-02-19T02:25:33.354Z,74.20
2019-02-19T02:28:41.283Z,74.40
2019-02-19T02:31:41.305Z,74.30
2019-02-19T02:34:42.494Z,74.00
2019-02-19T02:37:43.822Z,73.60
2019-02-19T02:40:44.731Z,73.90
2019-02-19T02:43:45.952Z,74.80
2019-02-19T02:46:35.621Z,75.90
2019-02-19T02:49:44.484Z,75.60
2019-02-19T02:52:45.693Z,75.30
2019-02-19T02:55:46.753Z,75.00
2019-02-19T02:58:53.815Z,75.40
2019-02-19T03:01:55.008Z,75.60
2019-02-19T03:04:54.923Z,75.50
2019-02-19T03:08:05.074Z,75.60
2019-02-19T03:11:06.331Z,75.70
2019-02-19T03:14:08.213Z,75.80
2019-02-19T03:17:09.315Z,76.40
2019-02-19T03:20:10.679Z,76.10
2019-02-19T03:23:11.975Z,76.30
2019-02-19T03:26:13.641Z,76.40
2019-02-19T03:32:21.704Z,77.80
2019-02-19T03:35:23.436Z,77.50
2019-02-19T03:38:25.174Z,78.30
2019-02-19T03:41:26.570Z,78.90
2019-02-19T03:44:16.365Z,79.10
2019-02-19T03:47:24.908Z,78.90
2019-02-19T03:50:24.718Z,78.20
2019-02-19T03:53:33.594Z,78.50
2019-02-19T03:56:41.390Z,79.20
2019-02-19T04:02:55.905Z,78.70
2019-02-19T04:05:45.588Z,78.90
2019-02-19T04:15:02.867Z,79.20
2019-02-19T04:18:04.581Z,79.60
2019-02-19T04:21:06.350Z,79.60
2019-02-19T04:24:07.386Z,79.40
2019-02-19T04:27:08.870Z,79.40
2019-02-19T04:30:15.536Z,80.00
2019-02-19T04:33:17.164Z,80.40
2019-02-19T04:36:06.995Z,81.00
2019-02-19T04:42:41.308Z,80.30
2019-02-19T04:45:42.944Z,79.80
2019-02-19T04:48:44.237Z,79.90
2019-02-19T04:51:49.098Z,80.10
2019-02-19T04:54:50.698Z,79.90
2019-02-19T04:57:51.974Z,79.80
2019-02-19T05:04:00.379Z,80.70
2019-02-19T05:07:01.617Z,82.00
2019-02-19T05:10:03.395Z,83.90
2019-02-19T05:13:05.305Z,83.40
2019-02-19T05:16:07.290Z,82.50
2019-02-19T05:19:08.309Z,81.50
2019-02-19T05:22:10.087Z,81.30
2019-02-19T05:25:11.082Z,81.30
2019-02-19T05:28:11.246Z,81.40
2019-02-19T05:34:19.732Z,81.20
2019-02-19T05:37:19.951Z,81.80
2019-02-19T05:40:21.098Z,82.10
2019-02-19T05:43:22.728Z,82.30
2019-02-19T05:46:24.406Z,82.30
2019-02-19T05:49:25.971Z,82.90
2019-02-19T05:52:27.795Z,83.00
2019-02-19T05:55:33.251Z,82.70
2019-02-19T05:58:34.479Z,82.30
2019-02-19T06:04:50.693Z,82.20
2019-02-19T06:07:51.777Z,82.30
2019-02-19T06:20:21.006Z,83.80
2019-02-19T06:23:22.064Z,83.70
2019-02-19T06:26:23.514Z,83.60
2019-02-19T06:29:24.458Z,83.90
2019-02-19T06:35:32.887Z,85.10
2019-02-19T06:38:34.666Z,84.80
2019-02-19T06:41:35.582Z,85.20
2019-02-19T06:44:37.571Z,84.90
2019-02-19T06:50:42.151Z,84.10
2019-02-19T06:57:05.224Z,84.30
2019-02-19T07:00:06.322Z,84.20
2019-02-19T07:06:10.890Z,85.10
2019-02-19T07:09:19.665Z,85.60
2019-02-19T07:12:20.651Z,85.50
2019-02-19T07:15:22.367Z,85.40
2019-02-19T07:18:24.159Z,85.50
2019-02-19T07:21:24.560Z,85.70
2019-02-19T07:24:25.974Z,85.80
2019-02-19T07:27:27.512Z,85.60
2019-02-19T07:30:29.034Z,85.80
2019-02-19T07:36:38.095Z,85.20
2019-02-19T07:39:39.491Z,85.50
2019-02-19T07:42:39.698Z,85.50
2019-02-19T07:45:48.491Z,85.20
2019-02-19T07:48:48.411Z,84.90
2019-02-19T07:51:57.270Z,84.40
2019-02-19T07:54:58.663Z,84.00
2019-02-19T07:57:59.621Z,84.20
2019-02-19T08:01:00.814Z,84.30
2019-02-19T08:07:09.605Z,83.60
2019-02-19T08:10:11.270Z,83.20
2019-02-19T08:13:12.423Z,83.10
2019-02-19T08:16:14.427Z,83.00
2019-02-19T08:19:04.139Z,82.70
2019-02-19T08:22:12.942Z,82.40
2019-02-19T08:25:13.778Z,81.90
2019-02-19T08:28:15.209Z,81.00
2019-02-19T08:31:16.548Z,78.60
2019-02-19T08:43:43.036Z,74.40
2019-02-19T08:46:44.494Z,73.80
2019-02-19T08:49:45.504Z,73.50
2019-02-19T08:52:47.407Z,73.30
2019-02-19T08:55:49.184Z,73.20
2019-02-19T08:58:50.884Z,72.50
2019-02-19T09:01:52.270Z,71.30
2019-02-19T09:11:10.024Z,68.30
2019-02-19T09:14:10.971Z,67.40
2019-02-19T09:17:13.054Z,66.10
2019-02-19T09:23:21.389Z,64.70
2019-02-19T09:26:22.829Z,64.30
2019-02-19T09:29:24.103Z,63.50
2019-02-19T09:32:25.163Z,63.00
2019-02-19T09:35:32.840Z,63.00
2019-02-19T09:38:34.234Z,62.80
2019-02-19T09:41:35.162Z,63.60
2019-02-19T09:44:37.237Z,62.20
2019-02-19T09:47:38.983Z,62.80
2019-02-19T09:50:40.167Z,62.60
2019-02-19T09:53:41.302Z,61.90
2019-02-19T09:56:48.224Z,61.60
2019-02-19T09:59:50.347Z,61.80
2019-02-19T10:02:52.078Z,62.20
2019-02-19T10:09:00.152Z,63.60
2019-02-19T10:12:01.594Z,63.80
2019-02-19T10:15:03.420Z,63.70
2019-02-19T10:18:10.271Z,64.30
2019-02-19T10:21:07.491Z,64.30
2019-02-19T10:24:08.540Z,65.00
2019-02-19T10:27:10.061Z,65.40
2019-02-19T10:30:11.861Z,65.20
2019-02-19T10:33:13.028Z,65.20
2019-02-19T10:36:20.321Z,65.10
2019-02-19T10:39:21.931Z,64.70
2019-02-19T10:42:23.293Z,64.70
2019-02-19T10:45:24.783Z,64.00
2019-02-19T10:48:25.884Z,63.70
2019-02-19T10:51:27.015Z,63.90
2019-02-19T10:54:27.939Z,63.70
2019-02-19T10:57:28.276Z,63.30
2019-02-19T11:00:29.466Z,64.30
2019-02-19T11:03:31.651Z,64.50
2019-02-19T11:06:39.120Z,64.70
2019-02-19T11:09:41.767Z,64.40
2019-02-19T11:12:42.650Z,64.20
2019-02-19T11:22:00.646Z,65.80
2019-02-19T11:25:01.698Z,67.60
2019-02-19T11:28:03.144Z,68.60
2019-02-19T11:31:05.046Z,68.30
2019-02-19T11:34:06.203Z,68.70
2019-02-19T11:37:14.037Z,69.20
2019-02-19T11:40:15.482Z,69.70
2019-02-19T11:43:17.071Z,69.90
2019-02-19T11:46:18.454Z,69.70
2019-02-19T11:49:19.985Z,69.30
2019-02-19T11:52:21.202Z,68.50
2019-02-19T11:55:22.908Z,69.00
2019-02-19T11:58:23.904Z,70.20
2019-02-19T12:01:25.266Z,71.30
2019-02-19T12:04:26.614Z,72.00
2019-02-19T12:10:34.824Z,72.40
2019-02-19T12:13:36.157Z,72.80
2019-02-19T12:16:37.651Z,73.00
2019-02-19T12:19:38.642Z,73.40
2019-02-19T12:22:39.862Z,73.40
2019-02-19T12:25:41.639Z,73.40
2019-02-19T12:28:31.231Z,73.20
2019-02-19T12:34:54.447Z,73.10
2019-02-19T12:38:01.927Z,73.10
2019-02-19T12:41:03.833Z,74.60
2019-02-19T12:44:04.687Z,75.00
2019-02-19T12:47:06.414Z,75.00
2019-02-19T12:50:08.187Z,74.70
2019-02-19T12:53:09.374Z,73.90
2019-02-19T12:56:10.456Z,73.30
2019-02-19T12:59:12.424Z,73.70
2019-02-19T13:02:16.999Z,74.50
2019-02-19T13:05:19.470Z,74.80
2019-02-19T13:08:29.700Z,74.40
2019-02-19T13:11:31.699Z,74.10
2019-02-19T13:14:33.794Z,73.80
2019-02-19T13:17:36.166Z,74.70
2019-02-19T13:20:38.158Z,75.40
2019-02-19T13:23:39.287Z,76.00
2019-02-19T13:26:40.497Z,76.40
2019-02-19T13:29:46.255Z,75.40
2019-02-19T13:32:47.953Z,74.90
2019-02-19T13:35:50.688Z,75.70
2019-02-19T13:45:01.440Z,77.10
2019-02-19T13:48:10.419Z,77.30
2019-02-19T13:51:12.475Z,77.30
2019-02-19T13:54:29.460Z,77.80
2019-02-19T13:57:31.369Z,78.60
2019-02-19T14:00:39.251Z,78.30
2019-02-19T14:03:41.782Z,78.50
2019-02-19T14:06:42.669Z,78.60
2019-02-19T14:12:51.738Z,77.60
2019-02-19T14:18:57.817Z,78.10
2019-02-19T14:22:17.618Z,78.00
2019-02-19T14:25:32.747Z,78.10
2019-02-19T14:28:41.066Z,77.70
2019-02-19T14:32:09.292Z,77.20
2019-02-19T14:35:29.729Z,77.50
2019-02-19T14:38:49.279Z,78.50
2019-02-19T14:45:08.247Z,79.20
2019-02-19T14:48:29.218Z,79.90
2019-02-19T14:55:27.717Z,77.80
2019-02-19T14:58:48.251Z,77.80
2019-02-19T15:02:08.987Z,77.70
2019-02-19T15:05:25.870Z,77.30
2019-02-19T15:08:46.487Z,77.50
2019-02-19T15:18:53.434Z,77.90
2019-02-19T15:22:13.864Z,77.80
2019-02-19T15:25:29.610Z,77.70
2019-02-19T15:32:25.037Z,77.60
2019-02-19T15:35:45.897Z,78.10
2019-02-19T15:42:23.936Z,78.70
2019-02-19T15:45:47.307Z,78.90
2019-02-19T15:52:40.476Z,78.80
2019-02-19T15:55:50.285Z,78.60
2019-02-19T15:59:10.423Z,78.40
2019-02-19T16:06:00.167Z,79.10
2019-02-19T16:16:06.278Z,77.90
2019-02-19T16:19:26.354Z,78.10
2019-02-19T16:25:52.764Z,78.60
2019-02-19T16:32:26.782Z,79.00
2019-02-19T16:35:38.138Z,79.00
2019-02-19T16:42:20.686Z,79.00
2019-02-19T16:45:41.042Z,79.20
2019-02-19T16:48:53.639Z,79.10
2019-02-19T16:52:02.632Z,79.30
2019-02-19T16:58:14.238Z,79.50
2019-02-19T17:01:42.463Z,79.50
2019-02-19T17:05:05.979Z,79.70
2019-02-19T17:08:26.384Z,79.90
2019-02-19T17:11:47.277Z,79.90
2019-02-19T17:15:10.705Z,80.30
2019-02-19T17:18:31.571Z,80.20
2019-02-19T17:25:10.544Z,80.70
2019-02-19T17:28:29.446Z,80.80
2019-02-19T17:35:23.630Z,81.40
2019-02-19T17:38:31.529Z,81.60
2019-02-19T17:41:39.402Z,81.90
2019-02-19T17:48:21.063Z,82.10
2019-02-19T17:51:35.066Z,82.50
2019-02-19T17:54:56.594Z,82.80
2019-02-19T17:58:12.809Z,82.80
2019-02-19T18:01:20.836Z,83.00
2019-02-19T18:04:47.486Z,83.00
2019-02-19T18:08:08.332Z,83.20
2019-02-19T18:11:25.797Z,83.00
2019-02-19T18:14:46.926Z,83.30
2019-02-19T18:21:02.818Z,83.50
2019-02-19T18:24:03.186Z,83.50
2019-02-19T18:27:11.978Z,83.90
2019-02-19T18:33:15.277Z,84.40
2019-02-19T18:39:51.631Z,84.80
2019-02-19T18:42:52.868Z,84.60
2019-02-19T18:45:53.793Z,85.00
2019-02-19T18:52:02.841Z,86.00
2019-02-19T18:55:04.408Z,86.60
2019-02-19T19:07:43.694Z,87.80
2019-02-19T19:10:45.142Z,87.30
2019-02-19T19:13:46.647Z,86.60
2019-02-19T19:16:48.418Z,86.80
2019-02-19T19:22:58.503Z,86.60
2019-02-19T19:26:00.108Z,85.60
2019-02-19T19:29:01.641Z,85.70
2019-02-19T19:32:03.511Z,86.20
2019-02-19T19:35:06.486Z,87.30
2019-02-19T19:38:08.367Z,87.60
2019-02-19T19:41:09.581Z,87.50
2019-02-19T19:44:11.932Z,87.70
2019-02-19T19:47:14.453Z,87.60
2019-02-19T19:53:27.899Z,88.20
2019-02-19T19:56:29.163Z,88.60
2019-02-19T19:59:30.771Z,88.90
2019-02-19T20:02:32.697Z,89.50
2019-02-19T20:05:34.951Z,89.00
2019-02-19T20:08:36.344Z,89.20
2019-02-19T20:11:38.126Z,89.20
2019-02-19T20:14:41.404Z,89.40
2019-02-19T20:17:42.897Z,89.30
2019-02-19T20:23:51.587Z,90.20
2019-02-19T20:26:53.107Z,90.60
2019-02-19T20:29:54.455Z,90.00
2019-02-19T20:32:55.768Z,89.10
2019-02-19T20:35:58.265Z,89.40
2019-02-19T20:38:59.937Z,89.60
2019-02-19T20:42:02.771Z,89.80
2019-02-19T20:48:37.284Z,90.30
2019-02-19T20:54:45.681Z,91.10
2019-02-19T20:57:47.588Z,91.00
2019-02-19T21:03:55.591Z,90.70
2019-02-19T21:06:56.861Z,90.60
2019-02-19T21:09:58.259Z,90.50
2019-02-19T21:12:58.585Z,90.40
2019-02-19T21:19:29.679Z,90.50
2019-02-19T21:25:37.842Z,90.20
2019-02-19T21:28:39.760Z,90.40
2019-02-19T21:31:41.596Z,90.20
2019-02-19T21:34:44.040Z,90.30
2019-02-19T21:37:45.854Z,90.30
2019-02-19T21:40:47.742Z,90.20
2019-02-19T21:43:48.765Z,90.20
2019-02-19T21:46:51.178Z,90.20
2019-02-19T21:49:52.880Z,90.30
2019-02-19T21:56:01.482Z,90.00
2019-02-19T21:59:02.986Z,90.20
2019-02-19T22:02:04.506Z,90.70
2019-02-19T22:05:06.514Z,90.80
2019-02-19T22:08:08.746Z,90.80
2019-02-19T22:11:09.779Z,90.80
2019-02-19T22:14:10.947Z,90.20
2019-02-19T22:17:12.543Z,90.20
2019-02-19T22:20:33.294Z,90.00
2019-02-19T22:26:41.374Z,90.30
2019-02-19T22:29:42.759Z,90.40
2019-02-19T22:32:43.808Z,90.40
2019-02-19T22:35:45.632Z,90.30
2019-02-19T22:38:48.164Z,90.20
2019-02-19T22:41:49.651Z,90.30
2019-02-19T22:44:51.294Z,90.30
2019-02-19T22:47:53.692Z,90.30
2019-02-19T22:50:55.690Z,90.30
2019-02-19T23:03:45.256Z,89.60
2019-02-19T23:06:46.954Z,90.20
2019-02-19T23:09:48.654Z,90.40
2019-02-19T23:12:50.871Z,90.40
2019-02-19T23:15:52.615Z,90.40
2019-02-19T23:18:54.091Z,90.50
2019-02-19T23:21:55.824Z,90.60
2019-02-19T23:25:03.183Z,90.80
2019-02-19T23:28:03.258Z,90.80
2019-02-19T23:31:03.635Z,90.70
2019-02-19T23:34:04.595Z,90.80
2019-02-19T23:37:16.605Z,90.80
2019-02-19T23:40:25.237Z,90.70
2019-02-19T23:43:26.247Z,90.80
2019-02-19T23:46:27.546Z,90.90
2019-02-19T23:49:28.850Z,90.80
2019-02-19T23:52:30.558Z,90.90
2019-02-19T23:55:38.191Z,91.00
2019-02-19T23:58:40.316Z,91.30
